createdAt,value
2018-05-09T00:01:41.689Z,2.60
2018-05-09T00:04:10.443Z,2.40
2018-05-09T00:06:38.779Z,2.50
2018-05-09T00:09:06.275Z,2.50
2018-05-09T00:11:33.874Z,3.00
2018-05-09T00:14:01.551Z,2.53
2018-05-09T00:16:29.116Z,2.40
2018-05-09T00:18:56.642Z,2.70
2018-05-09T00:21:25.188Z,2.13
2018-05-09T00:23:53.238Z,2.37
2018-05-09T00:26:21.737Z,2.67
2018-05-09T00:28:49.583Z,2.90
2018-05-09T00:31:17.374Z,2.40
2018-05-09T00:33:46.165Z,3.40
2018-05-09T00:36:15.763Z,2.50
2018-05-09T00:38:44.095Z,2.90
2018-05-09T00:41:11.596Z,3.60
2018-05-09T00:43:39.125Z,4.00
2018-05-09T00:46:06.641Z,4.03
2018-05-09T00:48:34.944Z,4.17
2018-05-09T00:51:03.361Z,4.63
2018-05-09T00:53:30.863Z,4.60
2018-05-09T00:56:01.090Z,5.03
2018-05-09T00:58:28.592Z,4.83
2018-05-09T01:00:57.095Z,4.10
2018-05-09T01:03:24.620Z,4.83
2018-05-09T01:05:52.123Z,5.43
2018-05-09T01:08:22.384Z,4.93
2018-05-09T01:10:49.879Z,4.47
2018-05-09T01:13:18.272Z,4.47
2018-05-09T01:15:45.801Z,4.30
2018-05-09T01:18:13.339Z,4.30
2018-05-09T01:20:40.839Z,4.53
2018-05-09T01:23:08.362Z,7.50
2018-05-09T01:25:35.875Z,4.87
2018-05-09T01:28:04.169Z,4.60
2018-05-09T01:30:32.639Z,4.97
2018-05-09T01:33:00.910Z,4.50
2018-05-09T01:35:29.200Z,4.83
2018-05-09T01:37:56.707Z,5.93
2018-05-09T01:40:24.250Z,5.00
2018-05-09T01:42:51.751Z,4.80
2018-05-09T01:45:19.282Z,4.40
2018-05-09T01:47:47.601Z,4.70
2018-05-09T01:50:15.144Z,5.30
2018-05-09T01:52:43.418Z,4.17
2018-05-09T01:57:50.637Z,5.30
2018-05-09T02:00:18.283Z,6.07
2018-05-09T02:02:46.555Z,5.03
2018-05-09T02:05:14.827Z,5.13
2018-05-09T02:07:43.122Z,5.07
2018-05-09T02:10:10.623Z,4.80
2018-05-09T02:12:38.144Z,5.40
2018-05-09T02:15:05.648Z,5.70
2018-05-09T02:17:33.199Z,4.63
2018-05-09T02:20:00.710Z,5.40
2018-05-09T02:22:28.199Z,4.70
2018-05-09T02:24:55.725Z,5.63
2018-05-09T02:27:23.283Z,4.30
2018-05-09T02:29:50.820Z,5.17
2018-05-09T02:32:19.090Z,5.40
2018-05-09T02:34:47.387Z,5.13
2018-05-09T02:37:14.886Z,5.30
2018-05-09T02:39:42.407Z,4.77
2018-05-09T02:42:10.921Z,6.37
2018-05-09T02:44:38.433Z,5.40
2018-05-09T02:47:05.947Z,4.30
2018-05-09T02:49:33.471Z,6.20
2018-05-09T02:52:00.980Z,5.57
2018-05-09T02:54:28.482Z,6.10
2018-05-09T02:56:56.020Z,6.43
2018-05-09T02:59:23.533Z,6.40
2018-05-09T03:01:51.070Z,7.03
2018-05-09T03:04:18.581Z,6.83
2018-05-09T03:06:46.876Z,8.90
2018-05-09T03:09:14.384Z,7.13
2018-05-09T03:11:41.913Z,6.47
2018-05-09T03:14:09.424Z,8.10
2018-05-09T03:16:37.716Z,8.43
2018-05-09T03:19:05.216Z,8.70
2018-05-09T03:21:32.723Z,8.47
2018-05-09T03:24:00.255Z,9.40
2018-05-09T03:26:27.763Z,10.47
2018-05-09T03:28:55.290Z,11.20
2018-05-09T03:31:23.563Z,11.83
2018-05-09T03:33:51.107Z,12.10
2018-05-09T03:36:19.387Z,12.23
2018-05-09T03:38:47.715Z,10.80
2018-05-09T03:41:15.227Z,12.50
2018-05-09T03:43:45.479Z,10.83
2018-05-09T03:46:12.987Z,9.20
2018-05-09T03:48:40.511Z,9.90
2018-05-09T03:51:08.020Z,8.93
2018-05-09T03:53:36.293Z,10.07
2018-05-09T03:56:04.587Z,9.83
2018-05-09T03:58:32.131Z,9.57
2018-05-09T04:01:00.438Z,9.03
2018-05-09T04:03:40.580Z,9.00
2018-05-09T04:06:20.107Z,10.33
2018-05-09T04:09:00.248Z,10.63
2018-05-09T04:11:28.540Z,11.53
2018-05-09T04:13:56.055Z,12.23
2018-05-09T04:16:25.531Z,12.93
2018-05-09T04:18:53.043Z,13.43
2018-05-09T04:21:21.336Z,13.07
2018-05-09T04:23:48.853Z,14.83
2018-05-09T04:26:16.382Z,14.60
2018-05-09T04:28:43.887Z,11.90
2018-05-09T04:31:13.094Z,12.20
2018-05-09T04:33:41.387Z,11.70
2018-05-09T04:36:08.897Z,10.33
2018-05-09T04:38:36.433Z,9.40
2018-05-09T04:41:03.941Z,10.00
2018-05-09T04:43:31.470Z,12.47
2018-05-09T04:45:58.978Z,11.87
2018-05-09T04:48:26.505Z,11.43
2018-05-09T04:50:54.780Z,10.93
2018-05-09T04:53:23.095Z,12.07
2018-05-09T04:55:51.551Z,11.93
2018-05-09T04:58:19.080Z,14.10
2018-05-09T05:00:47.383Z,13.37
2018-05-09T05:03:14.894Z,14.50
2018-05-09T05:05:42.428Z,12.60
2018-05-09T05:08:09.937Z,11.47
2018-05-09T05:10:38.860Z,12.00
2018-05-09T05:13:06.387Z,11.03
2018-05-09T05:15:34.676Z,11.47
2018-05-09T05:18:02.183Z,12.17
2018-05-09T05:20:29.715Z,10.10
2018-05-09T05:22:57.235Z,10.33
2018-05-09T05:25:25.507Z,12.30
2018-05-09T05:27:53.816Z,12.80
2018-05-09T05:30:22.274Z,11.90
2018-05-09T05:32:49.840Z,12.70
2018-05-09T05:35:18.135Z,12.47
2018-05-09T05:37:45.668Z,10.80
2018-05-09T05:40:13.183Z,12.13
2018-05-09T05:42:40.736Z,12.53
2018-05-09T05:45:08.304Z,11.53
2018-05-09T05:47:35.787Z,10.53
2018-05-09T05:50:04.061Z,10.27
2018-05-09T05:52:31.570Z,10.23
2018-05-09T05:54:59.111Z,10.13
2018-05-09T05:57:27.591Z,9.60
2018-05-09T05:59:55.112Z,8.40
2018-05-09T06:02:22.634Z,8.97
2018-05-09T06:04:50.164Z,8.60
2018-05-09T06:07:17.667Z,8.80
2018-05-09T06:09:45.170Z,9.47
2018-05-09T06:12:12.699Z,9.57
2018-05-09T06:14:41.029Z,8.60
2018-05-09T06:17:08.658Z,9.07
2018-05-09T06:19:36.547Z,8.83
2018-05-09T06:22:04.398Z,8.23
2018-05-09T06:24:32.260Z,9.10
2018-05-09T06:27:00.127Z,8.20
2018-05-09T06:29:28.911Z,10.47
2018-05-09T06:31:56.883Z,9.83
2018-05-09T06:34:24.747Z,7.83
2018-05-09T06:36:52.314Z,16.50
2018-05-09T06:39:20.066Z,15.90
2018-05-09T06:41:48.563Z,11.33
2018-05-09T06:44:16.177Z,10.63
2018-05-09T06:46:44.001Z,12.17
2018-05-09T06:49:12.865Z,11.40
2018-05-09T06:51:40.824Z,11.20
2018-05-09T06:54:08.395Z,11.77
2018-05-09T06:56:35.907Z,17.53
2018-05-09T06:59:04.283Z,14.57
2018-05-09T07:01:31.747Z,14.37
2018-05-09T07:03:59.287Z,16.20
2018-05-09T07:06:27.674Z,14.27
2018-05-09T07:08:55.095Z,13.30
2018-05-09T07:11:22.642Z,13.17
2018-05-09T07:13:50.172Z,16.47
2018-05-09T07:16:17.730Z,17.43
2018-05-09T07:18:45.238Z,16.23
2018-05-09T07:21:13.302Z,14.03
2018-05-09T07:23:40.823Z,13.53
2018-05-09T07:26:08.335Z,13.97
2018-05-09T07:28:37.591Z,12.33
2018-05-09T07:31:06.043Z,15.00
2018-05-09T07:33:33.565Z,11.40
2018-05-09T07:36:01.103Z,13.03
2018-05-09T07:38:28.607Z,12.73
2018-05-09T07:40:58.103Z,12.00
2018-05-09T07:43:26.382Z,13.83
2018-05-09T07:45:53.929Z,12.77
2018-05-09T07:48:24.175Z,14.00
2018-05-09T07:50:51.701Z,14.17
2018-05-09T07:53:19.235Z,11.87
2018-05-09T07:55:46.736Z,14.03
2018-05-09T07:58:14.275Z,11.70
2018-05-09T08:00:42.558Z,11.10
2018-05-09T08:03:10.863Z,10.80
2018-05-09T08:05:39.340Z,10.10
2018-05-09T08:08:06.915Z,10.70
2018-05-09T08:10:34.450Z,10.00
2018-05-09T08:13:01.979Z,10.77
2018-05-09T08:15:30.279Z,10.90
2018-05-09T08:17:57.792Z,10.60
2018-05-09T08:20:25.300Z,11.90
2018-05-09T08:22:52.823Z,10.63
2018-05-09T08:25:21.091Z,10.63
2018-05-09T08:27:48.611Z,11.10
2018-05-09T08:30:16.132Z,10.77
2018-05-09T08:32:43.647Z,10.73
2018-05-09T08:35:13.124Z,11.10
2018-05-09T08:37:40.626Z,10.80
2018-05-09T08:40:10.887Z,9.33
2018-05-09T08:42:38.391Z,11.53
2018-05-09T08:45:05.895Z,13.00
2018-05-09T08:47:33.439Z,10.20
2018-05-09T08:50:01.715Z,10.80
2018-05-09T08:52:29.244Z,9.30
2018-05-09T08:54:59.199Z,9.20
2018-05-09T08:57:26.702Z,8.60
2018-05-09T08:59:54.220Z,8.53
2018-05-09T09:02:21.731Z,9.13
2018-05-09T09:04:50.040Z,9.77
2018-05-09T09:07:17.553Z,8.00
2018-05-09T09:09:45.059Z,7.77
2018-05-09T09:12:14.580Z,8.50
2018-05-09T09:14:42.095Z,7.80
2018-05-09T09:17:10.398Z,10.87
2018-05-09T09:19:37.902Z,8.77
2018-05-09T09:22:05.408Z,8.47
2018-05-09T09:24:32.945Z,7.80
2018-05-09T09:27:01.215Z,8.97
2018-05-09T09:29:29.520Z,9.53
2018-05-09T09:31:57.015Z,8.17
2018-05-09T09:34:26.480Z,8.60
2018-05-09T09:36:53.983Z,8.50
2018-05-09T09:39:21.487Z,7.40
2018-05-09T09:41:49.105Z,8.60
2018-05-09T09:44:16.567Z,7.80
2018-05-09T09:46:44.093Z,8.07
2018-05-09T09:49:11.590Z,8.30
2018-05-09T09:51:39.860Z,8.50
2018-05-09T09:54:08.147Z,7.27
2018-05-09T09:56:37.387Z,8.87
2018-05-09T09:59:04.936Z,8.17
2018-05-09T10:01:32.465Z,8.23
2018-05-09T10:04:00.766Z,7.13
2018-05-09T10:06:28.263Z,8.30
2018-05-09T10:08:55.775Z,7.80
2018-05-09T10:11:23.306Z,8.03
2018-05-09T10:13:51.579Z,7.97
2018-05-09T10:16:19.894Z,6.93
2018-05-09T10:18:47.411Z,9.07
2018-05-09T10:21:15.709Z,6.90
2018-05-09T10:23:43.220Z,7.90
2018-05-09T10:26:10.747Z,8.03
2018-05-09T10:28:38.258Z,7.40
2018-05-09T10:31:07.747Z,7.30
2018-05-09T10:33:36.015Z,6.67
2018-05-09T10:36:03.521Z,7.57
2018-05-09T10:38:31.048Z,7.00
2018-05-09T10:40:59.319Z,6.67
2018-05-09T10:43:27.630Z,6.93
2018-05-09T10:45:55.127Z,7.13
2018-05-09T10:48:22.696Z,6.17
2018-05-09T10:50:50.236Z,6.80
2018-05-09T10:53:17.735Z,7.30
2018-05-09T10:55:47.980Z,6.43
2018-05-09T10:58:15.479Z,6.63
2018-05-09T11:00:42.987Z,6.90
2018-05-09T11:03:11.280Z,7.03
2018-05-09T11:05:38.784Z,7.20
2018-05-09T11:08:06.316Z,6.63
2018-05-09T11:10:33.929Z,7.87
2018-05-09T11:13:01.333Z,7.03
2018-05-09T11:15:28.874Z,7.00
2018-05-09T11:17:56.367Z,7.00
2018-05-09T11:20:23.896Z,7.10
2018-05-09T11:22:51.395Z,7.37
2018-05-09T11:25:19.688Z,7.07
2018-05-09T11:27:47.200Z,6.77
2018-05-09T11:30:14.715Z,7.50
2018-05-09T11:32:42.236Z,6.27
2018-05-09T11:35:10.503Z,6.07
2018-05-09T11:37:38.796Z,6.30
2018-05-09T11:40:07.076Z,6.30
2018-05-09T11:42:35.368Z,6.13
2018-05-09T11:45:03.828Z,6.60
2018-05-09T11:47:32.103Z,7.20
2018-05-09T11:50:00.399Z,7.07
2018-05-09T11:52:27.909Z,5.50
2018-05-09T11:54:55.431Z,6.57
2018-05-09T11:57:22.937Z,6.93
2018-05-09T11:59:50.437Z,6.73
2018-05-09T12:02:18.047Z,7.07
2018-05-09T12:04:45.468Z,6.70
2018-05-09T12:07:12.995Z,6.60
2018-05-09T12:09:40.501Z,5.53
2018-05-09T12:12:08.019Z,5.63
2018-05-09T12:14:35.528Z,5.70
2018-05-09T12:17:03.043Z,6.50
2018-05-09T12:19:30.577Z,6.20
2018-05-09T12:21:59.101Z,6.77
2018-05-09T12:24:26.650Z,6.37
2018-05-09T12:26:54.164Z,5.50
2018-05-09T12:29:22.436Z,5.77
2018-05-09T12:31:50.723Z,7.00
2018-05-09T12:34:18.242Z,6.40
2018-05-09T12:36:45.766Z,6.63
2018-05-09T12:39:13.276Z,5.40
2018-05-09T12:41:43.533Z,5.50
2018-05-09T12:44:11.034Z,5.73
2018-05-09T12:46:38.553Z,5.97
2018-05-09T12:49:08.042Z,5.53
2018-05-09T12:51:35.547Z,6.87
2018-05-09T12:54:03.076Z,5.23
2018-05-09T12:56:30.583Z,6.33
2018-05-09T12:58:58.856Z,5.70
2018-05-09T13:01:27.176Z,5.63
2018-05-09T13:03:54.672Z,5.57
2018-05-09T13:06:22.195Z,6.10
2018-05-09T13:08:49.690Z,5.00
2018-05-09T13:11:18.141Z,5.63
2018-05-09T13:13:46.423Z,6.07
2018-05-09T13:16:13.916Z,5.80
2018-05-09T13:18:42.213Z,6.07
2018-05-09T13:21:09.708Z,5.30
2018-05-09T13:23:37.219Z,5.93
2018-05-09T13:26:04.725Z,5.23
2018-05-09T13:28:33.191Z,4.97
2018-05-09T13:31:00.724Z,5.40
2018-05-09T13:33:28.233Z,5.00
2018-05-09T13:35:55.776Z,5.93
2018-05-09T13:38:23.302Z,5.20
2018-05-09T13:40:50.808Z,5.20
2018-05-09T13:43:18.339Z,5.40
2018-05-09T13:45:45.851Z,5.90
2018-05-09T13:48:14.120Z,6.10
2018-05-09T13:50:42.407Z,5.13
2018-05-09T13:53:11.624Z,5.50
2018-05-09T13:55:39.143Z,6.20
2018-05-09T13:58:07.403Z,5.57
2018-05-09T14:00:36.868Z,5.70
2018-05-09T14:03:04.368Z,4.97
2018-05-09T14:05:33.382Z,4.90
2018-05-09T14:08:01.666Z,5.27
2018-05-09T14:10:29.192Z,5.53
2018-05-09T14:12:57.483Z,4.57
2018-05-09T14:15:25.792Z,5.30
2018-05-09T14:17:53.299Z,5.73
2018-05-09T14:20:20.819Z,5.53
2018-05-09T14:22:48.310Z,5.60
2018-05-09T14:25:15.913Z,5.30
2018-05-09T14:27:43.352Z,5.20
2018-05-09T14:30:11.608Z,4.87
2018-05-09T14:32:40.636Z,4.73
2018-05-09T14:35:08.139Z,4.80
2018-05-09T14:37:35.667Z,5.00
2018-05-09T14:40:03.175Z,6.30
2018-05-09T14:42:30.666Z,5.00
2018-05-09T14:44:58.195Z,4.93
2018-05-09T14:47:26.453Z,5.40
2018-05-09T14:49:54.754Z,4.63
2018-05-09T14:52:23.031Z,4.10
2018-05-09T14:54:51.311Z,4.60
2018-05-09T14:57:18.819Z,5.90
2018-05-09T14:59:46.322Z,4.57
2018-05-09T15:02:13.843Z,4.80
2018-05-09T15:04:42.099Z,3.93
2018-05-09T15:07:09.619Z,5.10
2018-05-09T15:09:37.117Z,5.30
2018-05-09T15:12:06.589Z,5.30
2018-05-09T15:14:34.091Z,4.80
2018-05-09T15:17:02.366Z,5.10
2018-05-09T15:19:29.963Z,4.30
2018-05-09T15:21:57.409Z,4.10
2018-05-09T15:24:25.696Z,4.70
2018-05-09T15:26:53.199Z,5.37
2018-05-09T15:29:20.700Z,4.57
2018-05-09T15:31:48.995Z,4.40
2018-05-09T15:34:16.499Z,4.43
2018-05-09T15:36:44.028Z,4.40
2018-05-09T15:39:11.612Z,4.40
2018-05-09T15:41:39.057Z,4.73
2018-05-09T15:44:06.595Z,4.00
2018-05-09T15:46:34.107Z,5.03
2018-05-09T15:49:01.624Z,5.20
2018-05-09T15:51:29.123Z,4.67
2018-05-09T15:53:57.386Z,4.60
2018-05-09T15:56:24.928Z,4.37
2018-05-09T15:58:53.199Z,4.40
2018-05-09T16:01:20.776Z,5.00
2018-05-09T16:03:49.066Z,4.13
2018-05-09T16:06:17.343Z,4.37
2018-05-09T16:08:45.627Z,4.23
2018-05-09T16:11:13.915Z,4.70
2018-05-09T16:13:41.449Z,3.90
2018-05-09T16:16:09.724Z,4.70
2018-05-09T16:18:38.065Z,3.80
2018-05-09T16:21:05.567Z,4.80
2018-05-09T16:23:33.851Z,5.00
2018-05-09T16:26:01.358Z,4.20
2018-05-09T16:28:30.376Z,4.37
2018-05-09T16:30:58.667Z,4.30
2018-05-09T16:33:26.953Z,3.80
2018-05-09T16:35:54.459Z,3.90
2018-05-09T16:38:21.967Z,4.30
2018-05-09T16:40:49.487Z,4.07
2018-05-09T16:43:16.993Z,3.83
2018-05-09T16:45:44.535Z,4.20
2018-05-09T16:48:12.058Z,4.07
2018-05-09T16:50:40.599Z,3.73
2018-05-09T16:53:08.132Z,3.20
2018-05-09T16:55:36.387Z,3.63
2018-05-09T16:58:04.713Z,5.00
2018-05-09T17:00:32.220Z,4.77
2018-05-09T17:03:00.520Z,5.00
2018-05-09T17:05:28.051Z,4.10
2018-05-09T17:07:56.309Z,4.13
2018-05-09T17:10:23.843Z,3.70
2018-05-09T17:12:51.336Z,3.57
2018-05-09T17:15:19.625Z,4.47
2018-05-09T17:17:47.138Z,4.10
2018-05-09T17:20:14.643Z,4.50
2018-05-09T17:22:44.899Z,4.70
2018-05-09T17:25:12.433Z,4.40
2018-05-09T17:27:39.956Z,4.03
2018-05-09T17:30:08.236Z,4.33
2018-05-09T17:32:36.524Z,4.37
2018-05-09T17:35:04.790Z,4.60
2018-05-09T17:37:33.102Z,4.40
2018-05-09T17:40:00.619Z,3.80
2018-05-09T17:42:28.936Z,3.40
2018-05-09T17:44:56.432Z,3.80
2018-05-09T17:47:23.937Z,3.63
2018-05-09T17:49:52.331Z,4.10
2018-05-09T17:52:19.847Z,4.47
2018-05-09T17:54:48.138Z,4.30
2018-05-09T17:57:16.408Z,3.70
2018-05-09T17:59:44.788Z,4.13
2018-05-09T18:02:13.103Z,3.70
2018-05-09T18:04:40.594Z,4.03
2018-05-09T18:07:08.111Z,3.97
2018-05-09T18:09:36.557Z,4.27
2018-05-09T18:12:04.858Z,3.33
2018-05-09T18:14:32.356Z,4.77
2018-05-09T18:16:59.862Z,3.93
2018-05-09T18:19:27.419Z,3.90
2018-05-09T18:21:54.943Z,3.83
2018-05-09T18:24:22.445Z,3.47
2018-05-09T18:26:50.041Z,3.83
2018-05-09T18:29:18.254Z,3.87
2018-05-09T18:31:46.511Z,3.80
2018-05-09T18:34:14.811Z,4.17
2018-05-09T18:36:42.306Z,3.33
2018-05-09T18:39:09.803Z,4.50
2018-05-09T18:41:38.104Z,3.90
2018-05-09T18:44:06.591Z,3.67
2018-05-09T18:46:34.111Z,3.27
2018-05-09T18:49:01.628Z,3.90
2018-05-09T18:51:29.188Z,4.20
2018-05-09T18:53:56.687Z,3.47
2018-05-09T18:56:25.012Z,3.93
2018-05-09T18:58:54.552Z,4.13
2018-05-09T19:01:22.096Z,3.90
2018-05-09T19:03:49.636Z,3.30
2018-05-09T19:06:18.104Z,3.13
2018-05-09T19:08:45.656Z,3.97
2018-05-09T19:11:13.163Z,3.67
2018-05-09T19:13:42.612Z,3.80
2018-05-09T19:16:10.115Z,2.47
2018-05-09T19:18:37.635Z,3.90
2018-05-09T19:21:05.163Z,2.90
2018-05-09T19:23:33.440Z,3.30
2018-05-09T19:26:01.731Z,3.73
2018-05-09T19:28:29.268Z,3.10
2018-05-09T19:30:57.536Z,3.70
2018-05-09T19:33:25.823Z,3.23
2018-05-09T19:35:54.107Z,3.60
2018-05-09T19:38:21.626Z,3.57
2018-05-09T19:40:51.107Z,3.70
2018-05-09T19:43:18.656Z,3.40
2018-05-09T19:45:46.176Z,3.50
2018-05-09T19:48:14.459Z,3.50
2018-05-09T19:50:41.957Z,3.40
2018-05-09T19:53:09.475Z,3.70
2018-05-09T19:55:36.983Z,3.40
2018-05-09T19:58:04.509Z,3.37
2018-05-09T20:00:32.049Z,3.87
2018-05-09T20:03:00.503Z,3.83
2018-05-09T20:05:28.796Z,5.00
2018-05-09T20:07:56.322Z,3.73
2018-05-09T20:10:24.600Z,4.13
2018-05-09T20:12:52.912Z,4.10
2018-05-09T20:15:20.419Z,3.30
2018-05-09T20:17:47.968Z,3.47
2018-05-09T20:20:15.505Z,3.40
2018-05-09T20:22:43.976Z,3.63
2018-05-09T20:25:11.530Z,2.80
2018-05-09T20:27:39.042Z,3.77
2018-05-09T20:30:12.354Z,3.70
2018-05-09T20:32:40.646Z,3.20
2018-05-09T20:35:08.179Z,3.40
2018-05-09T20:37:36.463Z,3.30
2018-05-09T20:40:04.878Z,3.23
2018-05-09T20:42:32.383Z,2.87
2018-05-09T20:45:01.872Z,3.20
2018-05-09T20:47:30.315Z,3.40
2018-05-09T20:49:57.820Z,3.40
2018-05-09T20:52:25.350Z,3.13
2018-05-09T20:54:52.873Z,3.50
2018-05-09T20:57:20.413Z,3.70
2018-05-09T20:59:48.679Z,2.90
2018-05-09T21:02:16.964Z,3.10
2018-05-09T21:04:44.463Z,3.50
2018-05-09T21:07:11.955Z,3.63
2018-05-09T21:09:40.979Z,2.73
2018-05-09T21:12:09.391Z,3.10
2018-05-09T21:14:36.978Z,2.83
2018-05-09T21:17:04.429Z,3.13
2018-05-09T21:19:31.954Z,2.97
2018-05-09T21:21:59.451Z,3.33
2018-05-09T21:24:28.456Z,3.10
2018-05-09T21:26:56.768Z,2.53
2018-05-09T21:29:24.273Z,3.27
2018-05-09T21:31:51.788Z,3.13
2018-05-09T21:34:19.307Z,3.13
2018-05-09T21:36:47.599Z,3.23
2018-05-09T21:39:15.092Z,3.63
2018-05-09T21:41:42.620Z,2.90
2018-05-09T21:44:10.120Z,3.50
2018-05-09T21:46:38.577Z,3.20
2018-05-09T21:49:07.007Z,2.60
2018-05-09T21:51:35.276Z,3.00
2018-05-09T21:54:02.779Z,3.23
2018-05-09T21:56:30.300Z,3.10
2018-05-09T21:58:58.572Z,2.73
2018-05-09T22:01:26.922Z,3.20
2018-05-09T22:03:56.163Z,3.17
2018-05-09T22:06:23.689Z,3.23
2018-05-09T22:08:51.215Z,2.83
2018-05-09T22:11:18.753Z,3.27
2018-05-09T22:13:46.251Z,3.10
2018-05-09T22:16:13.747Z,2.70
2018-05-09T22:18:42.972Z,3.37
2018-05-09T22:21:10.495Z,2.50
2018-05-09T22:23:40.731Z,3.17
2018-05-09T22:26:08.237Z,2.93
2018-05-09T22:28:35.749Z,3.30
2018-05-09T22:31:03.242Z,2.40
2018-05-09T22:33:30.739Z,3.13
2018-05-09T22:35:59.022Z,2.83
2018-05-09T22:38:26.523Z,2.87
2018-05-09T22:40:54.030Z,2.93
2018-05-09T22:43:22.315Z,2.93
2018-05-09T22:45:50.603Z,2.90
2018-05-09T22:48:18.132Z,2.37
2018-05-09T22:50:47.349Z,2.80
2018-05-09T22:53:14.860Z,2.40
2018-05-09T22:55:42.366Z,3.50
2018-05-09T22:58:09.889Z,3.10
2018-05-09T23:00:37.419Z,3.50
2018-05-09T23:03:04.927Z,2.80
2018-05-09T23:05:33.187Z,2.87
2018-05-09T23:08:01.495Z,3.47
2018-05-09T23:10:28.988Z,2.93
2018-05-09T23:12:56.483Z,3.07
2018-05-09T23:15:24.764Z,3.10
2018-05-09T23:17:53.040Z,3.40
2018-05-09T23:20:23.271Z,3.83
2018-05-09T23:22:50.771Z,2.87
2018-05-09T23:25:18.295Z,2.77
2018-05-09T23:27:45.793Z,3.20
2018-05-09T23:30:15.466Z,2.93
2018-05-09T23:32:43.005Z,3.03
2018-05-09T23:35:10.890Z,2.70
2018-05-09T23:37:38.731Z,2.80
2018-05-09T23:40:06.251Z,2.77
2018-05-09T23:42:34.636Z,2.57
2018-05-09T23:45:03.071Z,2.70
2018-05-09T23:47:30.654Z,2.57
2018-05-09T23:49:58.950Z,2.77
2018-05-09T23:52:27.243Z,2.50
2018-05-09T23:54:55.498Z,2.80
2018-05-09T23:57:23.788Z,2.53
2018-05-09T23:59:52.050Z,2.57
